Time;durP1;ratioP1;P1;durP2;ratioP2;P2;SDS_P1;SDS_P2;PMS_P1;PMS_P2;Temp;Humidity;BMP_temperature;BMP_pressure;BME280_temperature;BME280_humidity;BME280_pressure;Samples;Min_cycle;Max_cycle;Signal;HPM_P1;HPM_P2
2021/05/20 00:02:22;;;;;;;4.25;3.58;;;11.10;75.10;;;;;;5007423;28;20044;-88
2021/05/20 00:04:47;;;;;;;4.47;3.92;;;11.10;75.70;;;;;;5009894;28;20480;-88
2021/05/20 00:07:13;;;;;;;4.10;3.60;;;11.00;75.10;;;;;;5004863;28;20038;-87
2021/05/20 00:09:38;;;;;;;3.30;3.00;;;11.00;75.20;;;;;;5012720;28;20037;-90
2021/05/20 00:12:04;;;;;;;4.18;3.63;;;11.00;75.30;;;;;;5005914;28;20447;-91
2021/05/20 00:14:30;;;;;;;5.28;4.00;;;11.00;75.40;;;;;;5005675;28;20033;-91
2021/05/20 00:16:56;;;;;;;3.97;3.55;;;10.90;75.50;;;;;;5017754;28;20021;-89
2021/05/20 00:19:22;;;;;;;5.47;4.93;;;10.90;75.60;;;;;;5004628;28;20013;-89
2021/05/20 00:21:48;;;;;;;5.22;4.15;;;10.80;75.80;;;;;;5002858;28;20468;-91
2021/05/20 00:24:14;;;;;;;5.40;4.32;;;10.80;75.90;;;;;;5010835;28;20057;-89
2021/05/20 00:26:39;;;;;;;5.63;4.20;;;10.80;76.00;;;;;;5012926;28;20033;-89
2021/05/20 00:29:05;;;;;;;5.18;4.32;;;10.80;76.20;;;;;;5007136;28;20038;-88
2021/05/20 00:31:31;;;;;;;5.90;5.20;;;10.80;76.20;;;;;;5007626;28;20100;-88
2021/05/20 00:33:56;;;;;;;6.32;5.03;;;10.80;76.30;;;;;;5006210;28;20536;-87
2021/05/20 00:36:22;;;;;;;5.15;4.13;;;10.80;76.30;;;;;;5018233;28;20169;-90
2021/05/20 00:38:48;;;;;;;6.47;5.47;;;10.80;76.30;;;;;;5012409;28;20435;-89
2021/05/20 00:41:13;;;;;;;6.22;5.57;;;10.80;76.30;;;;;;5015115;28;20030;-90
2021/05/20 00:43:42;;;;;;;6.53;5.40;;;10.70;76.30;;;;;;5013681;28;20026;-90
2021/05/20 00:46:08;;;;;;;6.60;5.15;;;10.70;76.40;;;;;;5011887;28;20030;-90
2021/05/20 00:48:34;;;;;;;6.57;5.85;;;10.70;76.40;;;;;;5011738;28;20493;-90
2021/05/20 00:50:59;;;;;;;6.30;5.43;;;10.70;76.50;;;;;;5009545;28;20092;-89
2021/05/20 00:53:26;;;;;;;5.80;4.70;;;10.60;77.20;;;;;;5008208;28;20030;-90
2021/05/20 00:55:53;;;;;;;5.78;4.70;;;10.60;76.70;;;;;;5007211;28;20053;-88
2021/05/20 00:58:20;;;;;;;6.00;5.05;;;10.60;76.70;;;;;;5008332;28;20072;-90
2021/05/20 01:00:50;;;;;;;5.80;4.75;;;10.60;76.70;;;;;;5003482;28;20022;-90
2021/05/20 01:03:15;;;;;;;6.57;4.55;;;10.60;76.70;;;;;;5003868;28;20026;-92
2021/05/20 01:05:41;;;;;;;6.82;5.03;;;10.60;76.70;;;;;;5011268;28;20029;-89
2021/05/20 01:08:06;;;;;;;7.03;5.50;;;10.50;76.70;;;;;;5009990;28;20030;-90
2021/05/20 01:10:32;;;;;;;5.72;4.90;;;10.60;76.80;;;;;;5011237;28;20492;-88
2021/05/20 01:12:57;;;;;;;7.07;5.88;;;10.60;76.80;;;;;;5009034;28;20607;-89
2021/05/20 01:15:28;;;;;;;5.82;5.22;;;10.50;76.80;;;;;;5001664;28;20030;-89
2021/05/20 01:18:00;;;;;;;8.20;6.78;;;10.60;76.90;;;;;;5006101;28;20025;-89
2021/05/20 01:20:40;;;;;;;7.72;6.68;;;10.60;76.90;;;;;;5005549;28;20026;-87
2021/05/20 01:23:08;;;;;;;7.50;6.45;;;10.60;76.90;;;;;;4992304;28;20033;-90
2021/05/20 01:25:35;;;;;;;9.40;6.72;;;10.50;76.90;;;;;;5008067;28;20504;-90
2021/05/20 01:28:04;;;;;;;7.78;6.20;;;10.50;76.90;;;;;;5011815;28;20121;-94
2021/05/20 01:30:36;;;;;;;7.90;6.53;;;10.50;77.00;;;;;;5006764;28;20403;-90
2021/05/20 01:33:02;;;;;;;10.57;8.65;;;10.50;77.00;;;;;;5007525;28;20026;-88
2021/05/20 01:35:28;;;;;;;11.07;8.70;;;10.50;77.10;;;;;;5008084;28;20117;-89
2021/05/20 01:40:55;;;;;;;10.18;8.32;;;10.40;77.40;;;;;;5003092;28;20117;-92
2021/05/20 01:43:20;;;;;;;10.90;8.63;;;10.40;77.40;;;;;;5013113;28;20028;-92
2021/05/20 01:45:51;;;;;;;10.93;8.75;;;10.40;77.50;;;;;;5015637;28;20109;-92
2021/05/20 01:48:16;;;;;;;11.35;8.27;;;10.40;77.60;;;;;;5014827;28;20028;-90
2021/05/20 01:50:42;;;;;;;10.77;8.52;;;10.40;77.60;;;;;;5014917;28;20030;-91
2021/05/20 01:53:08;;;;;;;10.57;8.32;;;10.40;77.70;;;;;;5005998;28;20026;-91
2021/05/20 01:55:34;;;;;;;11.05;9.07;;;10.40;77.70;;;;;;5001660;28;20026;-91
2021/05/20 01:58:00;;;;;;;11.93;9.32;;;10.40;77.80;;;;;;5010949;28;20088;-91
2021/05/20 02:00:25;;;;;;;11.55;9.70;;;10.40;77.90;;;;;;5014059;28;20060;-89
2021/05/20 02:02:51;;;;;;;14.60;10.15;;;10.40;78.00;;;;;;5014347;28;20022;-90
2021/05/20 02:05:25;;;;;;;13.70;10.85;;;10.40;78.10;;;;;;5013015;28;20484;-90
2021/05/20 02:07:51;;;;;;;13.18;10.50;;;10.40;78.20;;;;;;5012555;28;20022;-89
2021/05/20 02:10:16;;;;;;;13.90;10.85;;;10.40;78.20;;;;;;5003983;28;20034;-91
2021/05/20 02:12:42;;;;;;;13.02;8.77;;;10.40;78.20;;;;;;4995116;28;20109;-91
2021/05/20 02:15:08;;;;;;;12.60;8.85;;;10.40;78.30;;;;;;5004189;28;20503;-88
2021/05/20 02:17:36;;;;;;;15.13;10.50;;;10.40;78.40;;;;;;5012873;28;20022;-87
2021/05/20 02:20:03;;;;;;;12.40;8.65;;;10.40;78.40;;;;;;5012093;28;20022;-91
2021/05/20 02:22:28;;;;;;;16.75;9.52;;;10.40;78.40;;;;;;5014455;28;20026;-90
2021/05/20 02:24:54;;;;;;;14.00;9.13;;;10.50;78.50;;;;;;5011486;28;20507;-88
2021/05/20 02:27:19;;;;;;;16.48;8.23;;;10.50;78.50;;;;;;5009303;28;20495;-89
2021/05/20 02:29:45;;;;;;;17.95;8.10;;;10.50;78.50;;;;;;5002112;28;20111;-89
2021/05/20 02:32:11;;;;;;;13.68;9.45;;;10.50;78.50;;;;;;4999052;28;20109;-90
2021/05/20 02:34:36;;;;;;;16.02;9.27;;;10.50;78.50;;;;;;5014377;28;20058;-93
2021/05/20 02:37:02;;;;;;;17.45;8.80;;;10.50;78.60;;;;;;5013782;28;20037;-92
2021/05/20 02:39:27;;;;;;;12.70;8.40;;;10.40;78.60;;;;;;5014605;28;20022;-92
2021/05/20 02:41:53;;;;;;;23.35;9.10;;;10.40;78.80;;;;;;5010702;28;20026;-92
2021/05/20 02:44:18;;;;;;;18.95;6.03;;;10.40;78.80;;;;;;5011677;28;20103;-90
2021/05/20 02:46:44;;;;;;;22.00;8.10;;;10.40;78.80;;;;;;5008462;28;20083;-91
2021/05/20 02:49:10;;;;;;;28.40;8.40;;;10.40;78.70;;;;;;5018704;28;20082;-91
2021/05/20 02:51:35;;;;;;;27.95;7.13;;;10.40;78.80;;;;;;5015057;28;20021;-91
2021/05/20 02:54:01;;;;;;;32.92;7.50;;;10.40;78.80;;;;;;5028784;28;20062;-90
2021/05/20 02:56:26;;;;;;;32.83;7.05;;;10.40;79.00;;;;;;5015963;28;20048;-90
2021/05/20 02:58:52;;;;;;;33.83;8.50;;;10.30;79.00;;;;;;5023701;28;20021;-90
2021/05/20 03:01:21;;;;;;;14.52;6.50;;;10.30;79.10;;;;;;5018470;28;20033;-89
2021/05/20 03:03:47;;;;;;;25.70;7.82;;;10.30;79.30;;;;;;5026289;28;20025;-87
2021/05/20 03:06:13;;;;;;;35.05;7.50;;;10.30;79.40;;;;;;5016880;28;20511;-88
2021/05/20 03:08:39;;;;;;;18.92;7.03;;;10.30;79.40;;;;;;5011066;28;20026;-88
2021/05/20 03:11:05;;;;;;;22.92;7.60;;;10.30;79.40;;;;;;5014821;28;20030;-89
2021/05/20 03:13:30;;;;;;;20.42;6.55;;;10.30;79.50;;;;;;5029552;28;20044;-89
2021/05/20 03:15:56;;;;;;;21.10;8.45;;;10.30;79.60;;;;;;5016090;28;20033;-89
2021/05/20 03:18:21;;;;;;;16.30;6.53;;;10.30;79.60;;;;;;5013122;28;20026;-89
2021/05/20 03:20:47;;;;;;;30.55;6.80;;;10.30;79.60;;;;;;5011950;28;20124;-89
2021/05/20 03:23:13;;;;;;;17.35;5.55;;;10.30;79.60;;;;;;5012671;28;20030;-88
2021/05/20 03:25:38;;;;;;;16.92;5.22;;;10.30;79.60;;;;;;5010896;28;20028;-87
2021/05/20 03:28:04;;;;;;;48.30;7.85;;;10.30;79.50;;;;;;5012470;28;20025;-90
2021/05/20 03:30:30;;;;;;;52.35;9.60;;;10.30;79.60;;;;;;5010982;28;20034;-88
2021/05/20 03:32:55;;;;;;;27.50;7.20;;;10.20;79.80;;;;;;5012244;28;20018;-90
2021/05/20 03:35:21;;;;;;;31.08;8.68;;;10.20;79.90;;;;;;4997505;28;20112;-90
2021/05/20 03:37:46;;;;;;;22.63;7.00;;;10.20;80.60;;;;;;5002810;28;20463;-90
2021/05/20 03:40:12;;;;;;;16.50;7.28;;;10.10;80.20;;;;;;5013046;28;20022;-90
2021/05/20 03:42:38;;;;;;;28.75;8.00;;;10.10;80.90;;;;;;5013140;28;20070;-89
2021/05/20 03:45:05;;;;;;;25.75;7.90;;;10.10;80.20;;;;;;5012832;28;20022;-90
2021/05/20 03:47:30;;;;;;;25.92;8.50;;;10.10;80.20;;;;;;4994507;28;20030;-91
2021/05/20 03:49:56;;;;;;;26.85;8.02;;;10.20;80.30;;;;;;5008885;28;20554;-91
2021/05/20 03:52:21;;;;;;;22.30;8.90;;;10.10;80.10;;;;;;4998661;28;20030;-90
2021/05/20 03:54:47;;;;;;;25.75;7.75;;;10.20;80.30;;;;;;5009274;28;20049;-90
2021/05/20 03:57:13;;;;;;;21.33;8.18;;;10.10;80.30;;;;;;5012872;28;20034;-91
2021/05/20 03:59:38;;;;;;;13.27;7.30;;;10.10;80.20;;;;;;5012038;28;20034;-90
2021/05/20 04:02:05;;;;;;;13.38;7.03;;;10.10;80.30;;;;;;5012380;28;20467;-90
2021/05/20 04:04:30;;;;;;;15.48;7.22;;;10.20;80.30;;;;;;5012634;28;20076;-89
2021/05/20 04:06:56;;;;;;;17.98;6.63;;;10.20;80.80;;;;;;5011122;28;20048;-90
2021/05/20 04:09:21;;;;;;;12.23;7.35;;;10.30;80.10;;;;;;5011738;28;20087;-90
2021/05/20 04:11:47;;;;;;;15.07;8.10;;;10.30;79.90;;;;;;5011884;28;20018;-90
2021/05/20 04:14:12;;;;;;;20.13;7.53;;;10.30;80.00;;;;;;5004715;28;20038;-90
2021/05/20 04:16:38;;;;;;;16.02;6.78;;;10.30;80.00;;;;;;4992951;28;20030;-90
2021/05/20 04:19:04;;;;;;;9.98;6.30;;;10.30;80.50;;;;;;5000091;28;20020;-90
2021/05/20 04:21:30;;;;;;;12.90;6.70;;;10.30;79.80;;;;;;5007230;28;20022;-89
2021/05/20 04:23:56;;;;;;;9.55;6.30;;;10.30;79.70;;;;;;4998947;28;20022;-89
2021/05/20 04:26:22;;;;;;;10.02;7.53;;;10.30;79.80;;;;;;5001195;28;20117;-89
2021/05/20 04:28:48;;;;;;;13.15;7.68;;;10.30;79.80;;;;;;5009632;28;20061;-87
2021/05/20 04:31:14;;;;;;;9.02;6.32;;;10.40;79.80;;;;;;5010203;28;20028;-89
2021/05/20 04:33:41;;;;;;;12.98;6.75;;;10.40;79.70;;;;;;5012228;28;20037;-88
2021/05/20 04:36:07;;;;;;;8.77;6.20;;;10.40;79.60;;;;;;5010431;28;20396;-90
2021/05/20 04:38:32;;;;;;;6.13;4.15;;;10.40;79.60;;;;;;5012138;28;20018;-92
2021/05/20 04:40:58;;;;;;;14.35;5.88;;;10.40;79.50;;;;;;5010334;28;20026;-90
2021/05/20 04:43:24;;;;;;;9.15;6.43;;;10.40;79.50;;;;;;5012360;28;20030;-92
2021/05/20 04:45:49;;;;;;;15.13;6.60;;;10.30;79.50;;;;;;5012532;28;20460;-91
2021/05/20 04:48:15;;;;;;;11.15;6.00;;;10.30;79.50;;;;;;5011966;28;20026;-91
2021/05/20 04:50:41;;;;;;;9.43;5.97;;;10.30;79.50;;;;;;5012062;28;20176;-90
2021/05/20 04:53:11;;;;;;;9.32;6.10;;;10.20;79.50;;;;;;5007663;28;20025;-88
2021/05/20 04:55:37;;;;;;;9.45;6.88;;;10.30;79.50;;;;;;5011209;28;20022;-90
2021/05/20 04:58:02;;;;;;;9.20;5.97;;;10.30;79.40;;;;;;5005178;28;20487;-90
2021/05/20 05:00:28;;;;;;;9.10;5.38;;;10.40;79.40;;;;;;5010721;28;20045;-88
2021/05/20 05:02:54;;;;;;;7.00;5.53;;;10.40;79.30;;;;;;5001913;28;20022;-88
2021/05/20 05:05:20;;;;;;;8.20;5.78;;;10.40;79.30;;;;;;4994897;28;20006;-90
2021/05/20 05:07:46;;;;;;;8.80;5.85;;;10.40;79.20;;;;;;5004699;28;20372;-89
2021/05/20 05:10:13;;;;;;;9.43;7.05;;;10.50;79.20;;;;;;4994311;28;20492;-88
2021/05/20 05:12:39;;;;;;;9.25;6.43;;;10.50;79.10;;;;;;5008718;28;20562;-86
2021/05/20 05:15:06;;;;;;;10.25;6.38;;;10.60;79.00;;;;;;5001411;28;20030;-88
2021/05/20 05:17:32;;;;;;;10.48;6.20;;;10.60;78.90;;;;;;5001811;28;20022;-91
2021/05/20 05:19:57;;;;;;;9.85;5.38;;;10.70;78.80;;;;;;5013125;28;20025;-88
2021/05/20 05:22:23;;;;;;;8.65;5.80;;;10.70;78.70;;;;;;5012398;28;20064;-88
2021/05/20 05:24:48;;;;;;;7.18;5.20;;;10.80;78.60;;;;;;5013849;28;20030;-91
2021/05/20 05:27:15;;;;;;;8.70;5.82;;;10.80;78.60;;;;;;5005615;28;20076;-89
2021/05/20 05:29:43;;;;;;;10.68;5.95;;;10.80;78.60;;;;;;5012612;28;20025;-91
2021/05/20 05:32:09;;;;;;;9.27;5.55;;;10.90;78.50;;;;;;5024298;28;20034;-87
2021/05/20 05:34:34;;;;;;;7.63;6.03;;;10.90;78.40;;;;;;5010661;28;20026;-88
2021/05/20 05:37:01;;;;;;;8.38;6.28;;;11.00;78.40;;;;;;5015650;28;20033;-89
2021/05/20 05:39:28;;;;;;;8.20;5.18;;;11.00;78.10;;;;;;5019722;28;20101;-89
2021/05/20 05:41:54;;;;;;;8.68;5.93;;;11.00;78.10;;;;;;5013623;28;20108;-87
2021/05/20 05:44:20;;;;;;;7.72;5.95;;;11.00;78.10;;;;;;5011608;28;20756;-86
2021/05/20 05:46:45;;;;;;;7.53;5.85;;;11.00;78.10;;;;;;5013703;28;20491;-85
2021/05/20 05:49:15;;;;;;;8.55;6.10;;;11.00;78.10;;;;;;5011586;28;20029;-89
2021/05/20 05:51:45;;;;;;;8.68;6.40;;;11.10;78.30;;;;;;4995645;28;20045;-87
2021/05/20 05:54:11;;;;;;;9.63;6.90;;;11.10;78.10;;;;;;5012339;28;20014;-86
2021/05/20 05:56:37;;;;;;;10.10;6.03;;;11.20;78.10;;;;;;5008138;28;20041;-87
2021/05/20 05:59:03;;;;;;;8.55;6.10;;;11.20;78.10;;;;;;5005243;28;20040;-88
2021/05/20 06:01:28;;;;;;;8.52;6.20;;;11.20;78.10;;;;;;5011405;28;20097;-87
2021/05/20 06:03:54;;;;;;;10.30;7.40;;;11.20;78.10;;;;;;5006221;28;20560;-88
2021/05/20 06:06:20;;;;;;;8.57;6.18;;;11.30;78.20;;;;;;5009236;28;20032;-88
2021/05/20 06:08:46;;;;;;;9.75;6.95;;;11.40;78.10;;;;;;5017588;28;20026;-88
2021/05/20 06:11:11;;;;;;;11.07;7.60;;;11.50;78.00;;;;;;5010728;28;20152;-89
2021/05/20 06:13:37;;;;;;;9.23;6.75;;;11.60;77.80;;;;;;5010605;28;20080;-86
2021/05/20 06:16:03;;;;;;;7.57;5.55;;;11.80;77.40;;;;;;5017338;28;20030;-90
2021/05/20 06:18:28;;;;;;;8.82;6.72;;;12.10;76.60;;;;;;5016890;28;20476;-88
2021/05/20 06:20:54;;;;;;;8.68;5.95;;;12.20;76.20;;;;;;5008037;28;20025;-87
2021/05/20 06:23:19;;;;;;;7.50;5.10;;;12.20;76.10;;;;;;5020694;28;20036;-88
2021/05/20 06:25:46;;;;;;;8.80;6.13;;;12.30;75.90;;;;;;5007784;28;20080;-86
2021/05/20 06:28:11;;;;;;;11.13;7.15;;;12.30;75.90;;;;;;5005047;28;20022;-86
2021/05/20 06:30:37;;;;;;;10.70;6.80;;;12.40;75.90;;;;;;5007894;28;20136;-86
2021/05/20 06:33:03;;;;;;;11.57;8.02;;;12.40;75.90;;;;;;5013593;28;20029;-88
2021/05/20 06:35:28;;;;;;;12.90;8.50;;;12.30;76.10;;;;;;5013368;28;20112;-87
2021/05/20 06:37:54;;;;;;;10.27;7.15;;;12.30;76.30;;;;;;5011917;28;20022;-90
2021/05/20 06:40:20;;;;;;;10.80;7.13;;;12.30;76.30;;;;;;5016344;28;20028;-91
2021/05/20 06:42:45;;;;;;;10.13;6.70;;;12.30;76.30;;;;;;5024576;28;20054;-91
2021/05/20 06:45:12;;;;;;;11.57;7.50;;;12.40;76.40;;;;;;5016550;28;20536;-92
2021/05/20 06:47:38;;;;;;;11.63;7.47;;;12.50;76.20;;;;;;5011417;28;20021;-91
2021/05/20 06:50:05;;;;;;;14.40;8.88;;;12.50;75.90;;;;;;5017803;28;20042;-91
2021/05/20 06:52:31;;;;;;;10.57;7.03;;;12.40;75.80;;;;;;5009833;28;20029;-91
2021/05/20 06:54:56;;;;;;;15.88;10.07;;;12.50;76.00;;;;;;5019895;28;20021;-90
2021/05/20 06:59:56;;;;;;;13.75;9.00;;;12.60;76.00;;;;;;5005453;28;20034;-88
2021/05/20 07:00:17;;;;;;;11.27;6.82;;;12.80;75.60;;;;;;5007962;28;20033;-88
2021/05/20 07:02:49;;;;;;;14.85;9.43;;;12.80;75.20;;;;;;5011194;28;20018;-92
2021/05/20 07:05:16;;;;;;;18.42;12.23;;;12.80;75.10;;;;;;5010443;28;20036;-92
2021/05/20 07:07:42;;;;;;;14.45;9.25;;;12.60;75.80;;;;;;5003926;28;20029;-93
2021/05/20 07:10:08;;;;;;;24.27;14.77;;;12.60;75.60;;;;;;5006094;28;20556;-92
2021/05/20 07:12:35;;;;;;;18.48;10.98;;;12.60;75.50;;;;;;5006511;28;20125;-93
2021/05/20 07:15:07;;;;;;;12.70;8.27;;;12.50;75.30;;;;;;5003438;28;20041;-90
2021/05/20 07:17:34;;;;;;;;;;;12.60;75.60;;;;;;5010795;28;20171;-90
2021/05/20 07:19:59;;;;;;;13.15;7.88;;;12.70;75.30;;;;;;5006686;28;20638;-86
2021/05/20 07:22:25;;;;;;;13.40;7.82;;;13.00;75.00;;;;;;5015556;28;20032;-85
2021/05/20 07:24:51;;;;;;;14.80;8.75;;;13.40;74.40;;;;;;5015823;28;20022;-90
2021/05/20 07:27:17;;;;;;;14.82;8.52;;;13.40;73.90;;;;;;5009309;28;20032;-88
2021/05/20 07:29:43;;;;;;;12.52;7.72;;;13.40;73.80;;;;;;5009269;28;20111;-87
2021/05/20 07:32:10;;;;;;;16.13;9.38;;;13.30;73.70;;;;;;5006931;28;20317;-89
2021/05/20 07:34:37;;;;;;;32.88;21.13;;;13.30;74.10;;;;;;5005482;28;20029;-86
2021/05/20 07:37:04;;;;;;;21.25;12.70;;;13.20;73.70;;;;;;5012169;28;20156;-87
2021/05/20 07:39:29;;;;;;;24.27;15.85;;;13.10;74.50;;;;;;5010393;28;20041;-87
2021/05/20 07:41:55;;;;;;;22.63;15.38;;;13.10;74.00;;;;;;5008849;28;20017;-87
2021/05/20 07:44:20;;;;;;;19.17;13.05;;;13.00;74.10;;;;;;5005325;28;20034;-87
2021/05/20 07:46:48;;;;;;;23.35;14.52;;;13.00;74.20;;;;;;5009787;28;20030;-89
2021/05/20 07:49:13;;;;;;;25.05;16.45;;;13.10;74.40;;;;;;5012663;28;20455;-87
2021/05/20 07:51:39;;;;;;;21.70;13.65;;;13.00;74.40;;;;;;5010849;28;20108;-88
2021/05/20 07:54:05;;;;;;;27.60;17.42;;;13.00;74.50;;;;;;5018376;28;20051;-88
2021/05/20 07:56:31;;;;;;;22.08;14.80;;;13.10;74.30;;;;;;5013411;28;20038;-87
2021/05/20 07:58:58;;;;;;;15.52;9.98;;;13.20;74.20;;;;;;5017857;28;20013;-87
2021/05/20 08:01:23;;;;;;;22.73;15.07;;;13.30;74.00;;;;;;5013039;28;20022;-88
2021/05/20 08:04:00;;;;;;;23.70;14.23;;;13.30;73.90;;;;;;5009498;28;20067;-89
2021/05/20 08:06:37;;;;;;;25.90;16.13;;;13.40;73.90;;;;;;5017229;28;20048;-86
2021/05/20 08:09:17;;;;;;;30.60;20.33;;;13.40;73.90;;;;;;5008141;28;20033;-88
2021/05/20 08:11:42;;;;;;;29.10;19.10;;;13.40;74.20;;;;;;5008782;28;20765;-87
2021/05/20 08:14:08;;;;;;;25.63;16.33;;;13.40;73.60;;;;;;5014458;28;20048;-88
2021/05/20 08:16:34;;;;;;;31.80;20.05;;;13.50;73.60;;;;;;5011275;28;20033;-88
2021/05/20 08:18:59;;;;;;;36.80;23.80;;;13.50;73.50;;;;;;5017888;28;20025;-87
2021/05/20 08:21:26;;;;;;;26.83;17.70;;;13.50;73.30;;;;;;5018088;28;20026;-88
2021/05/20 08:23:51;;;;;;;23.73;15.45;;;13.50;73.50;;;;;;5015419;28;20125;-85
2021/05/20 08:26:18;;;;;;;23.85;15.02;;;13.70;73.70;;;;;;5013375;28;20104;-87
2021/05/20 08:28:44;;;;;;;26.35;18.05;;;13.80;73.40;;;;;;5013917;28;20021;-87
2021/05/20 08:31:09;;;;;;;23.30;14.32;;;13.90;73.00;;;;;;5013293;28;20037;-87
2021/05/20 08:33:35;;;;;;;26.98;17.67;;;13.90;72.60;;;;;;5017791;28;20021;-87
2021/05/20 08:36:05;;;;;;;27.05;16.92;;;13.90;73.40;;;;;;5017166;28;20492;-88
2021/05/20 08:38:30;;;;;;;22.35;14.18;;;14.00;72.70;;;;;;5012372;28;20032;-88
2021/05/20 08:40:58;;;;;;;21.55;14.02;;;14.20;72.30;;;;;;5014913;28;20021;-87
2021/05/20 08:43:24;;;;;;;20.00;12.93;;;14.40;71.80;;;;;;5006986;28;20107;-86
2021/05/20 08:45:49;;;;;;;15.75;10.55;;;14.50;71.30;;;;;;5016282;28;20053;-86
2021/05/20 08:48:15;;;;;;;21.52;14.05;;;14.70;71.00;;;;;;5009848;28;20033;-88
2021/05/20 08:50:41;;;;;;;23.40;15.57;;;14.70;70.40;;;;;;5015692;28;20033;-89
2021/05/20 08:53:06;;;;;;;21.92;14.30;;;14.80;70.20;;;;;;5013043;28;20368;-89
2021/05/20 08:55:36;;;;;;;27.08;17.38;;;14.90;70.20;;;;;;5023424;28;20030;-89
2021/05/20 08:58:04;;;;;;;24.75;16.60;;;14.90;70.00;;;;;;5022848;28;20025;-88
2021/05/20 09:00:30;;;;;;;18.95;11.80;;;14.70;69.80;;;;;;5025702;28;20048;-89
2021/05/20 09:03:08;;;;;;;16.85;11.32;;;14.60;70.20;;;;;;5021367;28;21090;-89
2021/05/20 09:05:34;;;;;;;21.20;13.30;;;14.60;70.50;;;;;;5023818;28;20014;-88
2021/05/20 09:08:04;;;;;;;17.55;12.10;;;14.70;70.50;;;;;;5026513;28;20045;-87
2021/05/20 09:10:32;;;;;;;21.10;15.05;;;14.70;70.10;;;;;;5020932;28;20029;-88
2021/05/20 09:13:06;;;;;;;18.40;12.70;;;14.70;69.50;;;;;;5025514;28;20658;-88
2021/05/20 09:15:34;;;;;;;17.42;12.27;;;14.70;69.40;;;;;;5029002;28;20025;-88
2021/05/20 09:18:21;;;;;;;17.58;13.02;;;14.90;69.60;;;;;;5019652;28;20104;-86
2021/05/20 09:20:58;;;;;;;19.67;14.85;;;14.90;69.10;;;;;;5016156;28;20431;-88
2021/05/20 09:23:32;;;;;;;17.95;12.13;;;14.90;68.90;;;;;;5024717;28;20045;-86
2021/05/20 09:26:09;;;;;;;17.08;11.75;;;15.10;68.80;;;;;;5018949;28;20032;-88
2021/05/20 09:28:43;;;;;;;16.48;12.68;;;15.30;68.40;;;;;;5017390;28;20029;-88
2021/05/20 09:31:10;;;;;;;16.02;12.05;;;15.40;67.90;;;;;;5011621;28;20396;-89
2021/05/20 09:33:36;;;;;;;15.20;10.70;;;15.50;67.60;;;;;;5017064;28;20018;-89
2021/05/20 09:36:03;;;;;;;11.80;9.18;;;15.50;68.40;;;;;;5022810;28;20076;-86
2021/05/20 09:38:29;;;;;;;12.55;9.55;;;15.60;67.70;;;;;;5021303;28;20022;-93
2021/05/20 09:41:02;;;;;;;11.88;9.05;;;15.60;67.50;;;;;;5022207;28;20024;-92
2021/05/20 09:43:35;;;;;;;16.85;13.43;;;15.60;67.30;;;;;;5020548;28;20024;-93
2021/05/20 09:46:16;;;;;;;20.95;17.00;;;15.50;66.50;;;;;;5018367;28;20419;-90
2021/05/20 09:48:45;;;;;;;15.38;12.20;;;15.30;66.00;;;;;;5016710;28;20076;-88
2021/05/20 09:51:41;;;;;;;14.57;11.25;;;15.30;66.30;;;;;;5024350;28;20059;-91
2021/05/20 09:54:07;;;;;;;14.00;11.25;;;15.50;66.80;;;;;;5008241;28;20038;-92
2021/05/20 09:56:40;;;;;;;18.98;14.60;;;15.70;66.80;;;;;;5021843;28;20052;-93
2021/05/20 09:59:15;;;;;;;19.15;15.40;;;15.70;66.10;;;;;;5008531;28;20528;-93
2021/05/20 10:01:45;;;;;;;16.92;13.20;;;15.60;65.80;;;;;;5013493;28;20145;-93
2021/05/20 10:04:33;;;;;;;15.15;11.93;;;15.70;66.00;;;;;;5027808;28;20025;-92
2021/05/20 10:07:00;;;;;;;18.23;13.98;;;15.60;65.90;;;;;;4996671;28;20121;-92
2021/05/20 10:09:26;;;;;;;12.30;10.68;;;15.60;65.50;;;;;;5009672;28;20021;-91
2021/05/20 10:11:52;;;;;;;14.77;13.05;;;15.70;65.70;;;;;;5022400;28;20122;-91
2021/05/20 10:14:24;;;;;;;12.02;10.63;;;15.80;65.10;;;;;;5023092;28;20064;-92
2021/05/20 10:16:50;;;;;;;12.90;9.95;;;15.80;65.10;;;;;;5006467;28;20030;-93
2021/05/20 10:19:16;;;;;;;19.23;16.27;;;16.00;64.80;;;;;;5027890;28;20026;-91
2021/05/20 10:21:42;;;;;;;14.05;11.55;;;15.90;63.40;;;;;;5012328;28;20461;-92
2021/05/20 10:24:18;;;;;;;14.18;11.65;;;15.90;64.00;;;;;;5010891;28;20497;-93
2021/05/20 10:26:48;;;;;;;11.18;9.35;;;16.10;64.10;;;;;;5011113;28;20018;-94
2021/05/20 10:29:24;;;;;;;12.98;9.15;;;16.10;64.30;;;;;;5016032;28;20033;-94
2021/05/20 10:31:53;;;;;;;13.15;10.73;;;16.20;64.20;;;;;;5010274;28;20116;-93
2021/05/20 10:34:20;;;;;;;12.63;11.05;;;16.30;64.30;;;;;;5019432;28;20090;-94
2021/05/20 10:37:03;;;;;;;12.13;10.10;;;16.30;64.20;;;;;;5016740;28;20037;-93
2021/05/20 10:39:28;;;;;;;8.32;7.03;;;16.30;64.10;;;;;;5024589;28;20536;-92
2021/05/20 10:41:55;;;;;;;9.15;7.68;;;16.30;64.10;;;;;;5013854;28;20056;-92
2021/05/20 10:44:21;;;;;;;12.35;9.20;;;16.50;64.20;;;;;;5017874;28;20030;-93
2021/05/20 10:47:03;;;;;;;10.05;8.38;;;16.60;63.40;;;;;;5019864;28;20041;-92
2021/05/20 10:49:52;;;;;;;11.88;7.95;;;16.70;63.40;;;;;;5017153;28;20034;-92
2021/05/20 10:52:39;;;;;;;9.23;7.57;;;16.90;63.10;;;;;;5025873;28;20103;-93
2021/05/20 10:55:10;;;;;;;9.52;8.30;;;17.10;62.70;;;;;;5028667;28;20426;-92
2021/05/20 10:57:56;;;;;;;8.35;7.30;;;17.20;62.70;;;;;;5017235;28;20026;-93
2021/05/20 11:00:36;;;;;;;10.00;8.15;;;17.40;62.60;;;;;;5026381;28;20034;-93
2021/05/20 11:03:03;;;;;;;12.48;10.32;;;17.50;62.10;;;;;;5008819;28;20022;-92
2021/05/20 11:05:41;;;;;;;13.63;11.18;;;17.40;61.00;;;;;;5010560;28;20030;-89
2021/05/20 11:08:30;;;;;;;11.10;9.05;;;17.40;60.60;;;;;;5003578;28;20044;-93
2021/05/20 11:10:56;;;;;;;15.30;12.57;;;17.30;60.30;;;;;;5006136;28;20081;-93
2021/05/20 11:13:45;;;;;;;16.02;13.07;;;17.20;60.10;;;;;;5011688;28;20042;-96
2021/05/20 11:16:20;;;;;;;14.98;12.30;;;17.20;59.70;;;;;;5006934;28;20049;-92
2021/05/20 11:18:51;;;;;;;14.27;12.27;;;17.10;60.00;;;;;;5015405;28;20030;-92
2021/05/20 11:21:18;;;;;;;12.10;10.45;;;17.30;60.50;;;;;;5019053;28;20030;-92
2021/05/20 11:24:15;;;;;;;15.25;12.55;;;17.30;60.60;;;;;;5006644;28;20042;-92
2021/05/20 11:26:41;;;;;;;18.58;15.40;;;17.40;59.80;;;;;;5012424;28;20460;-93
2021/05/20 11:29:15;;;;;;;17.25;14.13;;;17.40;59.10;;;;;;5018283;28;20108;-96
2021/05/20 11:31:42;;;;;;;17.05;13.65;;;17.50;59.30;;;;;;5006363;28;20038;-92
2021/05/20 11:36:49;;;;;;;16.02;12.93;;;17.90;59.00;;;;;;5012682;28;20053;-93
2021/05/20 11:39:17;;;;;;;17.70;14.50;;;17.90;58.00;;;;;;5016291;28;20034;-92
2021/05/20 11:41:44;;;;;;;22.02;17.70;;;17.90;57.80;;;;;;5012548;28;20026;-91
2021/05/20 11:44:13;;;;;;;22.35;18.48;;;18.00;57.20;;;;;;5013424;28;20075;-92
2021/05/20 11:46:41;;;;;;;21.25;16.10;;;17.80;56.50;;;;;;5015623;28;20057;-95
2021/05/20 11:49:22;;;;;;;15.77;12.32;;;17.90;57.20;;;;;;5015866;28;20037;-92
2021/05/20 11:51:52;;;;;;;18.67;14.70;;;18.00;57.20;;;;;;5005407;28;20079;-92
2021/05/20 11:54:21;;;;;;;17.48;12.82;;;18.10;57.00;;;;;;5009669;28;20029;-94
2021/05/20 11:56:59;;;;;;;20.20;15.20;;;18.40;57.00;;;;;;5009236;28;20034;-91
2021/05/20 11:59:39;;;;;;;26.85;19.30;;;18.40;56.00;;;;;;5008048;28;20034;-91
2021/05/20 12:02:23;;;;;;;19.90;14.50;;;18.40;54.50;;;;;;5009783;28;20099;-92
2021/05/20 12:05:09;;;;;;;21.77;16.60;;;18.30;56.10;;;;;;5014562;28;20038;-94
2021/05/20 12:07:40;;;;;;;19.85;14.70;;;18.20;55.10;;;;;;5016298;28;20025;-92
2021/05/20 12:10:14;;;;;;;25.52;19.50;;;18.30;55.10;;;;;;5008166;28;20388;-94
2021/05/20 12:12:45;;;;;;;25.58;19.88;;;18.30;54.00;;;;;;5010762;28;20503;-96
2021/05/20 12:15:19;;;;;;;18.55;14.73;;;18.30;54.60;;;;;;5024768;28;20022;-94
2021/05/20 12:17:46;;;;;;;14.75;11.27;;;18.30;54.30;;;;;;5020028;28;20034;-90
2021/05/20 12:20:13;;;;;;;14.68;11.32;;;18.60;54.60;;;;;;5011638;28;20033;-92
2021/05/20 12:22:39;;;;;;;14.82;11.55;;;18.80;54.50;;;;;;5018839;28;20030;-93
2021/05/20 12:25:08;;;;;;;20.38;14.65;;;19.00;54.10;;;;;;5002866;28;20015;-89
2021/05/20 12:27:37;;;;;;;19.33;14.27;;;18.90;54.30;;;;;;5014758;28;20503;-88
2021/05/20 12:30:19;;;;;;;23.08;18.35;;;18.90;53.90;;;;;;5008831;28;20123;-88
2021/05/20 12:32:47;;;;;;;22.25;17.05;;;18.80;53.30;;;;;;5013281;28;20033;-89
2021/05/20 12:35:37;;;;;;;13.30;11.02;;;18.60;53.30;;;;;;5007970;28;20021;-90
2021/05/20 12:38:12;;;;;;;11.02;8.43;;;18.60;54.10;;;;;;5005115;28;20027;-91
2021/05/20 12:40:43;;;;;;;16.27;13.20;;;18.70;54.20;;;;;;5010688;28;20026;-86
2021/05/20 12:43:16;;;;;;;12.88;10.32;;;18.70;54.10;;;;;;5002771;28;20439;-88
2021/05/20 12:45:45;;;;;;;14.27;11.98;;;18.60;54.60;;;;;;4999296;28;20022;-88
2021/05/20 12:48:30;;;;;;;13.02;10.90;;;18.40;54.40;;;;;;5020251;28;20757;-88